sensor_id;sensor_type;location;lat;lon;timestamp;pressure;altitude;pressure_sealevel;temperature;humidity
51099;BME280;37146;48.210;16.234;2023-05-10T00:01:20;98630.94;;;8.74;87.36
51099;BME280;37146;48.210;16.234;2023-05-10T00:03:45;98629.91;;;8.76;87.29
51099;BME280;37146;48.210;16.234;2023-05-10T00:06:11;98627.13;;;8.78;86.80
51099;BME280;37146;48.210;16.234;2023-05-10T00:08:37;98617.50;;;8.75;86.61
51099;BME280;37146;48.210;16.234;2023-05-10T00:11:02;98622.38;;;8.85;87.02
51099;BME280;37146;48.210;16.234;2023-05-10T00:13:27;98614.44;;;8.83;85.69
51099;BME280;37146;48.210;16.234;2023-05-10T00:15:52;98615.47;;;8.80;86.12
51099;BME280;37146;48.210;16.234;2023-05-10T00:18:18;98612.03;;;8.78;85.68
51099;BME280;37146;48.210;16.234;2023-05-10T00:20:44;98607.72;;;8.76;86.08
51099;BME280;37146;48.210;16.234;2023-05-10T00:23:11;98609.22;;;8.81;85.96
51099;BME280;37146;48.210;16.234;2023-05-10T00:25:36;98610.69;;;8.70;87.03
51099;BME280;37146;48.210;16.234;2023-05-10T00:28:01;98597.66;;;8.63;87.73
51099;BME280;37146;48.210;16.234;2023-05-10T00:30:26;98594.06;;;8.64;87.04
51099;BME280;37146;48.210;16.234;2023-05-10T00:32:51;98587.16;;;8.60;87.39
51099;BME280;37146;48.210;16.234;2023-05-10T00:35:17;98591.94;;;8.54;87.80
51099;BME280;37146;48.210;16.234;2023-05-10T00:37:42;98585.56;;;8.56;88.34
51099;BME280;37146;48.210;16.234;2023-05-10T00:40:07;98578.69;;;8.52;87.75
51099;BME280;37146;48.210;16.234;2023-05-10T00:42:33;98585.50;;;8.58;86.85
51099;BME280;37146;48.210;16.234;2023-05-10T00:44:58;98577.66;;;8.55;86.79
51099;BME280;37146;48.210;16.234;2023-05-10T00:47:23;98576.88;;;8.53;86.88
51099;BME280;37146;48.210;16.234;2023-05-10T00:49:49;98569.66;;;8.55;86.58
51099;BME280;37146;48.210;16.234;2023-05-10T00:52:14;98569.81;;;8.51;86.68
51099;BME280;37146;48.210;16.234;2023-05-10T00:54:40;98563.53;;;8.53;86.69
51099;BME280;37146;48.210;16.234;2023-05-10T00:57:05;98561.91;;;8.50;86.80
51099;BME280;37146;48.210;16.234;2023-05-10T00:59:30;98564.78;;;8.45;87.43
51099;BME280;37146;48.210;16.234;2023-05-10T01:01:56;98558.34;;;8.49;87.13
51099;BME280;37146;48.210;16.234;2023-05-10T01:04:22;98560.38;;;8.44;87.82
51099;BME280;37146;48.210;16.234;2023-05-10T01:06:50;98558.75;;;8.42;87.83
51099;BME280;37146;48.210;16.234;2023-05-10T01:09:16;98549.88;;;8.41;88.01
51099;BME280;37146;48.210;16.234;2023-05-10T01:11:42;98550.97;;;8.37;88.47
51099;BME280;37146;48.210;16.234;2023-05-10T01:14:07;98550.00;;;8.38;88.51
51099;BME280;37146;48.210;16.234;2023-05-10T01:16:34;98536.22;;;8.30;88.96
51099;BME280;37146;48.210;16.234;2023-05-10T01:19:00;98543.66;;;8.23;90.18
51099;BME280;37146;48.210;16.234;2023-05-10T01:29:47;98536.06;;;8.15;91.70
51099;BME280;37146;48.210;16.234;2023-05-10T01:34:55;98534.38;;;8.13;92.20
51099;BME280;37146;48.210;16.234;2023-05-10T01:38:07;98528.22;;;8.12;92.80
51099;BME280;37146;48.210;16.234;2023-05-10T01:42:48;98526.00;;;8.03;93.80
51099;BME280;37146;48.210;16.234;2023-05-10T01:45:24;98527.09;;;7.99;94.44
51099;BME280;37146;48.210;16.234;2023-05-10T01:48:01;98518.03;;;8.03;94.58
51099;BME280;37146;48.210;16.234;2023-05-10T01:50:29;98525.13;;;8.02;94.75
51099;BME280;37146;48.210;16.234;2023-05-10T01:52:56;98518.03;;;8.03;94.90
51099;BME280;37146;48.210;16.234;2023-05-10T01:55:23;98514.63;;;7.99;95.18
51099;BME280;37146;48.210;16.234;2023-05-10T01:57:51;98518.16;;;8.00;95.39
51099;BME280;37146;48.210;16.234;2023-05-10T02:00:17;98519.09;;;7.99;95.72
51099;BME280;37146;48.210;16.234;2023-05-10T02:02:47;98521.91;;;7.96;96.20
51099;BME280;37146;48.210;16.234;2023-05-10T02:05:14;98513.16;;;7.94;96.62
51099;BME280;37146;48.210;16.234;2023-05-10T02:07:40;98506.25;;;7.89;97.23
51099;BME280;37146;48.210;16.234;2023-05-10T02:10:06;98508.09;;;7.87;97.41
51099;BME280;37146;48.210;16.234;2023-05-10T02:12:35;98511.84;;;7.83;97.78
51099;BME280;37146;48.210;16.234;2023-05-10T02:15:02;98512.88;;;7.81;98.16
51099;BME280;37146;48.210;16.234;2023-05-10T02:17:27;98509.19;;;7.83;98.00
51099;BME280;37146;48.210;16.234;2023-05-10T02:19:53;98508.66;;;7.77;98.48
51099;BME280;37146;48.210;16.234;2023-05-10T02:22:20;98505.25;;;7.73;99.12
51099;BME280;37146;48.210;16.234;2023-05-10T02:24:46;98506.97;;;7.74;99.15
51099;BME280;37146;48.210;16.234;2023-05-10T02:27:12;98508.84;;;7.72;99.28
51099;BME280;37146;48.210;16.234;2023-05-10T02:29:39;98501.03;;;7.69;99.86
51099;BME280;37146;48.210;16.234;2023-05-10T02:32:04;98508.22;;;7.67;100.00
51099;BME280;37146;48.210;16.234;2023-05-10T02:34:30;98505.56;;;7.67;100.00
51099;BME280;37146;48.210;16.234;2023-05-10T02:36:56;98508.00;;;7.71;100.00
51099;BME280;37146;48.210;16.234;2023-05-10T02:39:21;98510.31;;;7.60;100.00
51099;BME280;37146;48.210;16.234;2023-05-10T02:41:50;98509.44;;;7.60;100.00
51099;BME280;37146;48.210;16.234;2023-05-10T02:44:17;98514.16;;;7.72;100.00
51099;BME280;37146;48.210;16.234;2023-05-10T02:46:43;98511.31;;;7.57;100.00
51099;BME280;37146;48.210;16.234;2023-05-10T02:49:09;98513.19;;;7.55;100.00
51099;BME280;37146;48.210;16.234;2023-05-10T02:51:35;98509.94;;;7.49;100.00
51099;BME280;37146;48.210;16.234;2023-05-10T02:54:02;98509.72;;;7.53;100.00
51099;BME280;37146;48.210;16.234;2023-05-10T02:56:30;98506.13;;;7.54;100.00
51099;BME280;37146;48.210;16.234;2023-05-10T02:58:56;98513.31;;;7.52;100.00
51099;BME280;37146;48.210;16.234;2023-05-10T03:01:21;98515.19;;;7.50;100.00
51099;BME280;37146;48.210;16.234;2023-05-10T03:03:47;98515.84;;;7.55;100.00
51099;BME280;37146;48.210;16.234;2023-05-10T03:06:12;98515.94;;;7.54;100.00
51099;BME280;37146;48.210;16.234;2023-05-10T03:08:37;98510.88;;;7.48;100.00
51099;BME280;37146;48.210;16.234;2023-05-10T03:13:29;98508.44;;;7.43;100.00
51099;BME280;37146;48.210;16.234;2023-05-10T03:16:06;98519.16;;;7.41;100.00
51099;BME280;37146;48.210;16.234;2023-05-10T03:20:59;98521.81;;;7.41;100.00
51099;BME280;37146;48.210;16.234;2023-05-10T03:23:30;98521.03;;;7.39;100.00
51099;BME280;37146;48.210;16.234;2023-05-10T03:25:59;98518.94;;;7.46;100.00
51099;BME280;37146;48.210;16.234;2023-05-10T03:28:24;98519.22;;;7.40;100.00
51099;BME280;37146;48.210;16.234;2023-05-10T03:30:51;98524.69;;;7.37;100.00
51099;BME280;37146;48.210;16.234;2023-05-10T03:33:17;98517.47;;;7.39;100.00
51099;BME280;37146;48.210;16.234;2023-05-10T03:35:42;98524.69;;;7.37;100.00
51099;BME280;37146;48.210;16.234;2023-05-10T03:38:10;98525.56;;;7.37;100.00
51099;BME280;37146;48.210;16.234;2023-05-10T03:40:35;98524.63;;;7.38;100.00
51099;BME280;37146;48.210;16.234;2023-05-10T03:43:01;98519.22;;;7.40;100.00
51099;BME280;37146;48.210;16.234;2023-05-10T03:45:26;98520.31;;;7.36;100.00
51099;BME280;37146;48.210;16.234;2023-05-10T03:47:51;98511.31;;;7.38;100.00
51099;BME280;37146;48.210;16.234;2023-05-10T03:50:16;98517.44;;;7.40;100.00
51099;BME280;37146;48.210;16.234;2023-05-10T03:52:43;98517.47;;;7.39;100.00
51099;BME280;37146;48.210;16.234;2023-05-10T03:55:08;98520.94;;;7.41;100.00
51099;BME280;37146;48.210;16.234;2023-05-10T03:57:33;98525.34;;;7.42;100.00
51099;BME280;37146;48.210;16.234;2023-05-10T03:59:59;98525.19;;;7.45;100.00
51099;BME280;37146;48.210;16.234;2023-05-10T04:02:24;98520.66;;;7.47;100.00
51099;BME280;37146;48.210;16.234;2023-05-10T04:04:50;98522.53;;;7.45;100.00
51099;BME280;37146;48.210;16.234;2023-05-10T04:07:15;98531.94;;;7.52;100.00
51099;BME280;37146;48.210;16.234;2023-05-10T04:09:40;98527.41;;;7.54;100.00
51099;BME280;37146;48.210;16.234;2023-05-10T04:12:06;98535.63;;;7.50;100.00
51099;BME280;37146;48.210;16.234;2023-05-10T04:14:31;98523.97;;;7.52;100.00
51099;BME280;37146;48.210;16.234;2023-05-10T04:16:56;98535.31;;;7.56;100.00
51099;BME280;37146;48.210;16.234;2023-05-10T04:19:22;98538.06;;;7.54;100.00
51099;BME280;37146;48.210;16.234;2023-05-10T04:21:47;98529.06;;;7.57;100.00
51099;BME280;37146;48.210;16.234;2023-05-10T04:24:12;98531.69;;;7.58;100.00
51099;BME280;37146;48.210;16.234;2023-05-10T04:26:38;98530.75;;;7.60;100.00
51099;BME280;37146;48.210;16.234;2023-05-10T04:29:03;98541.31;;;7.61;100.00
51099;BME280;37146;48.210;16.234;2023-05-10T04:31:28;98537.63;;;7.64;100.00
51099;BME280;37146;48.210;16.234;2023-05-10T04:33:53;98549.88;;;7.68;100.00
51099;BME280;37146;48.210;16.234;2023-05-10T04:36:19;98551.44;;;7.72;100.00
51099;BME280;37146;48.210;16.234;2023-05-10T04:38:44;98545.97;;;7.75;100.00
51099;BME280;37146;48.210;16.234;2023-05-10T04:41:10;98544.09;;;7.77;100.00
51099;BME280;37146;48.210;16.234;2023-05-10T04:43:35;98540.38;;;7.81;100.00
51099;BME280;37146;48.210;16.234;2023-05-10T04:46:01;98541.78;;;7.88;100.00
51099;BME280;37146;48.210;16.234;2023-05-10T04:48:26;98543.59;;;7.88;100.00
51099;BME280;37146;48.210;16.234;2023-05-10T04:50:51;98541.56;;;7.93;100.00
51099;BME280;37146;48.210;16.234;2023-05-10T04:53:17;98545.63;;;8.00;100.00
51099;BME280;37146;48.210;16.234;2023-05-10T04:55:42;98553.41;;;8.05;100.00
51099;BME280;37146;48.210;16.234;2023-05-10T04:58:07;98544.34;;;8.09;100.00
51099;BME280;37146;48.210;16.234;2023-05-10T05:00:32;98552.19;;;8.12;100.00
51099;BME280;37146;48.210;16.234;2023-05-10T05:02:58;98556.25;;;8.19;100.00
51099;BME280;37146;48.210;16.234;2023-05-10T05:05:23;98557.72;;;8.27;100.00
51099;BME280;37146;48.210;16.234;2023-05-10T05:07:48;98553.56;;;8.39;100.00
51099;BME280;37146;48.210;16.234;2023-05-10T05:10:13;98556.06;;;8.42;99.51
51099;BME280;37146;48.210;16.234;2023-05-10T05:12:39;98559.44;;;8.45;99.39
51099;BME280;37146;48.210;16.234;2023-05-10T05:15:04;98561.66;;;8.55;98.66
51099;BME280;37146;48.210;16.234;2023-05-10T05:17:30;98559.66;;;8.60;98.22
51099;BME280;37146;48.210;16.234;2023-05-10T05:19:55;98558.28;;;8.69;97.15
51099;BME280;37146;48.210;16.234;2023-05-10T05:22:20;98552.72;;;8.73;96.98
51099;BME280;37146;48.210;16.234;2023-05-10T05:24:52;98560.25;;;8.82;96.40
51099;BME280;37146;48.210;16.234;2023-05-10T05:27:17;98561.81;;;8.87;95.53
51099;BME280;37146;48.210;16.234;2023-05-10T05:29:42;98560.09;;;9.03;94.76
51099;BME280;37146;48.210;16.234;2023-05-10T05:32:07;98559.09;;;9.22;94.29
51099;BME280;37146;48.210;16.234;2023-05-10T05:34:33;98561.38;;;9.30;93.59
51099;BME280;37146;48.210;16.234;2023-05-10T05:36:58;98551.97;;;9.38;93.40
51099;BME280;37146;48.210;16.234;2023-05-10T05:39:23;98559.50;;;9.48;92.55
51099;BME280;37146;48.210;16.234;2023-05-10T05:41:49;98552.88;;;9.55;92.63
51099;BME280;37146;48.210;16.234;2023-05-10T05:44:14;98551.16;;;9.70;91.62
51099;BME280;37146;48.210;16.234;2023-05-10T05:46:39;98552.22;;;9.83;91.28
51099;BME280;37146;48.210;16.234;2023-05-10T05:49:04;98559.97;;;9.88;90.76
51099;BME280;37146;48.210;16.234;2023-05-10T05:51:30;98554.44;;;10.07;89.77
51099;BME280;37146;48.210;16.234;2023-05-10T05:53:55;98553.91;;;10.16;89.15
51099;BME280;37146;48.210;16.234;2023-05-10T05:56:21;98551.56;;;10.42;88.01
51099;BME280;37146;48.210;16.234;2023-05-10T05:58:50;98555.94;;;10.43;88.25
51099;BME280;37146;48.210;16.234;2023-05-10T06:01:15;98554.50;;;10.68;85.71
51099;BME280;37146;48.210;16.234;2023-05-10T06:03:40;98559.81;;;10.84;85.67
51099;BME280;37146;48.210;16.234;2023-05-10T06:06:05;98555.94;;;11.04;83.89
51099;BME280;37146;48.210;16.234;2023-05-10T06:08:31;98557.94;;;11.29;83.18
51099;BME280;37146;48.210;16.234;2023-05-10T06:10:56;98549.91;;;11.58;81.52
51099;BME280;37146;48.210;16.234;2023-05-10T06:13:22;98552.69;;;11.71;80.29
51099;BME280;37146;48.210;16.234;2023-05-10T06:15:47;98557.41;;;11.95;78.89
51099;BME280;37146;48.210;16.234;2023-05-10T06:18:12;98551.84;;;12.13;78.19
51099;BME280;37146;48.210;16.234;2023-05-10T06:20:37;98557.81;;;12.31;77.89
51099;BME280;37146;48.210;16.234;2023-05-10T06:23:02;98551.47;;;12.59;74.79
51099;BME280;37146;48.210;16.234;2023-05-10T06:25:28;98557.94;;;12.82;74.43
51099;BME280;37146;48.210;16.234;2023-05-10T06:27:53;98566.44;;;13.02;71.11
51099;BME280;37146;48.210;16.234;2023-05-10T06:30:22;98569.69;;;13.07;69.58
51099;BME280;37146;48.210;16.234;2023-05-10T06:32:52;98565.81;;;13.37;68.62
51099;BME280;37146;48.210;16.234;2023-05-10T06:35:17;98563.91;;;13.39;67.01
51099;BME280;37146;48.210;16.234;2023-05-10T06:37:42;98567.25;;;13.56;67.18
51099;BME280;37146;48.210;16.234;2023-05-10T06:40:08;98572.28;;;13.48;65.44
51099;BME280;37146;48.210;16.234;2023-05-10T06:42:34;98575.91;;;13.72;65.43
51099;BME280;37146;48.210;16.234;2023-05-10T06:44:59;98567.31;;;13.80;65.46
51099;BME280;37146;48.210;16.234;2023-05-10T06:47:24;98565.28;;;13.71;63.77
51099;BME280;37146;48.210;16.234;2023-05-10T06:49:49;98565.91;;;13.74;63.82
51099;BME280;37146;48.210;16.234;2023-05-10T06:52:15;98559.25;;;13.80;63.24
51099;BME280;37146;48.210;16.234;2023-05-10T06:54:40;98559.66;;;13.87;63.27
51099;BME280;37146;48.210;16.234;2023-05-10T06:57:05;98563.22;;;14.12;63.17
51099;BME280;37146;48.210;16.234;2023-05-10T06:59:31;98560.66;;;14.10;62.46
51099;BME280;37146;48.210;16.234;2023-05-10T07:01:56;98551.34;;;14.27;62.01
51099;BME280;37146;48.210;16.234;2023-05-10T07:04:22;98562.56;;;14.21;61.35
51099;BME280;37146;48.210;16.234;2023-05-10T07:06:47;98542.00;;;14.20;61.20
51099;BME280;37146;48.210;16.234;2023-05-10T07:09:12;98542.50;;;14.25;60.26
51099;BME280;37146;48.210;16.234;2023-05-10T07:11:38;98556.25;;;14.33;58.98
51099;BME280;37146;48.210;16.234;2023-05-10T07:14:03;98540.34;;;14.30;59.90
51099;BME280;37146;48.210;16.234;2023-05-10T07:16:29;98559.25;;;14.42;60.05
51099;BME280;37146;48.210;16.234;2023-05-10T07:18:54;98554.13;;;14.74;59.10
51099;BME280;37146;48.210;16.234;2023-05-10T07:21:19;98563.72;;;14.54;58.78
51099;BME280;37146;48.210;16.234;2023-05-10T07:23:44;98560.41;;;14.62;58.86
51099;BME280;37146;48.210;16.234;2023-05-10T07:26:10;98553.16;;;14.51;58.52
51099;BME280;37146;48.210;16.234;2023-05-10T07:28:35;98568.56;;;14.73;58.07
51099;BME280;37146;48.210;16.234;2023-05-10T07:31:02;98562.22;;;14.74;57.17
51099;BME280;37146;48.210;16.234;2023-05-10T07:33:27;98556.47;;;14.79;57.68
51099;BME280;37146;48.210;16.234;2023-05-10T07:35:52;98571.47;;;14.94;56.94
51099;BME280;37146;48.210;16.234;2023-05-10T07:38:18;98572.44;;;14.93;57.01
51099;BME280;37146;48.210;16.234;2023-05-10T07:40:43;98541.97;;;14.93;56.62
51099;BME280;37146;48.210;16.234;2023-05-10T07:43:08;98560.84;;;15.27;57.07
51099;BME280;37146;48.210;16.234;2023-05-10T07:45:33;98550.59;;;15.43;56.69
51099;BME280;37146;48.210;16.234;2023-05-10T07:47:59;98548.03;;;15.53;57.38
51099;BME280;37146;48.210;16.234;2023-05-10T07:50:24;98544.34;;;15.20;58.03
51099;BME280;37146;48.210;16.234;2023-05-10T07:52:50;98556.84;;;15.89;57.69
51099;BME280;37146;48.210;16.234;2023-05-10T07:55:15;98560.50;;;15.20;58.39
51099;BME280;37146;48.210;16.234;2023-05-10T07:57:41;98557.09;;;15.52;59.06
51099;BME280;37146;48.210;16.234;2023-05-10T08:00:06;98558.19;;;15.50;59.67
51099;BME280;37146;48.210;16.234;2023-05-10T08:02:32;98561.75;;;15.61;59.21
51099;BME280;37146;48.210;16.234;2023-05-10T08:04:58;98555.75;;;15.35;59.32
51099;BME280;37146;48.210;16.234;2023-05-10T08:07:24;98561.72;;;15.27;60.05
51099;BME280;37146;48.210;16.234;2023-05-10T08:09:49;98569.09;;;15.48;60.56
51099;BME280;37146;48.210;16.234;2023-05-10T08:12:14;98563.94;;;15.68;60.38
51099;BME280;37146;48.210;16.234;2023-05-10T08:14:39;98555.59;;;15.14;61.16
51099;BME280;37146;48.210;16.234;2023-05-10T08:17:05;98571.06;;;15.46;61.53
51099;BME280;37146;48.210;16.234;2023-05-10T08:19:30;98563.91;;;15.22;60.96
51099;BME280;37146;48.210;16.234;2023-05-10T08:21:56;98560.88;;;15.15;60.91
51099;BME280;37146;48.210;16.234;2023-05-10T08:24:22;98556.06;;;15.08;61.91
51099;BME280;37146;48.210;16.234;2023-05-10T08:26:47;98555.63;;;15.37;62.59
51099;BME280;37146;48.210;16.234;2023-05-10T08:29:12;98562.56;;;15.28;61.91
51099;BME280;37146;48.210;16.234;2023-05-10T08:31:38;98571.91;;;15.35;61.53
51099;BME280;37146;48.210;16.234;2023-05-10T08:34:03;98559.88;;;15.17;61.74
51099;BME280;37146;48.210;16.234;2023-05-10T08:36:28;98565.66;;;15.57;61.11
51099;BME280;37146;48.210;16.234;2023-05-10T08:38:53;98557.34;;;15.60;60.30
51099;BME280;37146;48.210;16.234;2023-05-10T08:41:19;98557.56;;;15.80;60.01
51099;BME280;37146;48.210;16.234;2023-05-10T08:43:46;98562.72;;;15.60;60.21
51099;BME280;37146;48.210;16.234;2023-05-10T08:46:12;98565.66;;;15.57;59.15
51099;BME280;37146;48.210;16.234;2023-05-10T08:48:40;98565.19;;;15.75;59.52
51099;BME280;37146;48.210;16.234;2023-05-10T08:51:06;98561.63;;;15.40;59.33
51099;BME280;37146;48.210;16.234;2023-05-10T08:53:33;98564.91;;;15.55;59.54
51099;BME280;37146;48.210;16.234;2023-05-10T08:56:01;98573.16;;;15.54;58.85
51099;BME280;37146;48.210;16.234;2023-05-10T08:58:27;98594.34;;;15.70;58.16
51099;BME280;37146;48.210;16.234;2023-05-10T09:00:52;98552.31;;;15.79;58.43
51099;BME280;37146;48.210;16.234;2023-05-10T09:03:18;98575.34;;;16.05;57.66
51099;BME280;37146;48.210;16.234;2023-05-10T09:05:43;98561.38;;;16.12;56.37
51099;BME280;37146;48.210;16.234;2023-05-10T09:08:09;98566.28;;;15.72;57.77
51099;BME280;37146;48.210;16.234;2023-05-10T09:10:35;98566.16;;;16.08;56.88
51099;BME280;37146;48.210;16.234;2023-05-10T09:13:01;98582.81;;;15.79;56.87
51099;BME280;37146;48.210;16.234;2023-05-10T09:15:27;98577.34;;;15.92;57.11
51099;BME280;37146;48.210;16.234;2023-05-10T09:17:52;98558.47;;;16.36;56.47
51099;BME280;37146;48.210;16.234;2023-05-10T09:20:19;98556.69;;;16.25;56.94
51099;BME280;37146;48.210;16.234;2023-05-10T09:22:45;98564.00;;;16.67;56.31
51099;BME280;37146;48.210;16.234;2023-05-10T09:25:14;98558.03;;;16.96;55.12
51099;BME280;37146;48.210;16.234;2023-05-10T09:27:40;98567.50;;;17.33;54.53
51099;BME280;37146;48.210;16.234;2023-05-10T09:30:07;98570.28;;;16.89;54.73
51099;BME280;37146;48.210;16.234;2023-05-10T09:32:45;98571.41;;;17.19;54.75
51099;BME280;37146;48.210;16.234;2023-05-10T09:35:12;98569.44;;;16.56;56.23
51099;BME280;37146;48.210;16.234;2023-05-10T09:37:41;98572.59;;;16.72;55.66
51099;BME280;37146;48.210;16.234;2023-05-10T09:40:07;98578.53;;;17.20;54.41
51099;BME280;37146;48.210;16.234;2023-05-10T09:42:33;98569.88;;;17.47;53.74
51099;BME280;37146;48.210;16.234;2023-05-10T09:45:02;98558.09;;;18.39;51.51
51099;BME280;37146;48.210;16.234;2023-05-10T09:47:28;98560.97;;;17.35;53.94
51099;BME280;37146;48.210;16.234;2023-05-10T09:49:53;98575.53;;;17.23;54.44
51099;BME280;37146;48.210;16.234;2023-05-10T09:52:22;98569.47;;;17.09;55.08
51099;BME280;37146;48.210;16.234;2023-05-10T09:54:54;98561.69;;;17.68;53.38
51099;BME280;37146;48.210;16.234;2023-05-10T09:57:23;98547.69;;;18.54;51.04
51099;BME280;37146;48.210;16.234;2023-05-10T09:59:49;98546.16;;;18.01;51.44
51099;BME280;37146;48.210;16.234;2023-05-10T10:02:15;98578.28;;;17.85;49.34
51099;BME280;37146;48.210;16.234;2023-05-10T10:04:42;98545.44;;;17.99;49.77
51099;BME280;37146;48.210;16.234;2023-05-10T10:07:08;98538.81;;;18.43;48.36
51099;BME280;37146;48.210;16.234;2023-05-10T10:09:34;98540.00;;;18.69;48.91
51099;BME280;37146;48.210;16.234;2023-05-10T10:12:00;98559.88;;;19.37;48.36
51099;BME280;37146;48.210;16.234;2023-05-10T10:14:25;98556.38;;;18.58;48.51
51099;BME280;37146;48.210;16.234;2023-05-10T10:16:51;98540.81;;;18.70;49.28
51099;BME280;37146;48.210;16.234;2023-05-10T10:19:16;98568.47;;;18.54;49.91
51099;BME280;37146;48.210;16.234;2023-05-10T10:21:42;98555.59;;;19.44;47.50
51099;BME280;37146;48.210;16.234;2023-05-10T10:24:07;98546.56;;;19.91;46.58
51099;BME280;37146;48.210;16.234;2023-05-10T10:26:33;98580.31;;;19.79;46.31
51099;BME280;37146;48.210;16.234;2023-05-10T10:29:15;98547.19;;;20.13;45.17
51099;BME280;37146;48.210;16.234;2023-05-10T10:34:32;98561.13;;;20.18;44.48
51099;BME280;37146;48.210;16.234;2023-05-10T10:36:57;98553.41;;;21.40;43.56
51099;BME280;37146;48.210;16.234;2023-05-10T10:39:23;98541.78;;;20.31;45.21
51099;BME280;37146;48.210;16.234;2023-05-10T10:41:53;98552.50;;;20.51;44.63
51099;BME280;37146;48.210;16.234;2023-05-10T10:47:04;98537.41;;;19.17;47.80
51099;BME280;37146;48.210;16.234;2023-05-10T10:49:52;98550.13;;;19.07;47.44
51099;BME280;37146;48.210;16.234;2023-05-10T10:55:15;98553.41;;;19.00;46.45
51099;BME280;37146;48.210;16.234;2023-05-10T11:00:35;98545.66;;;20.01;44.68
51099;BME280;37146;48.210;16.234;2023-05-10T11:07:58;98526.03;;;20.71;43.28
51099;BME280;37146;48.210;16.234;2023-05-10T11:10:23;98565.84;;;19.41;45.40
51099;BME280;37146;48.210;16.234;2023-05-10T11:13:08;98541.22;;;19.72;44.43
51099;BME280;37146;48.210;16.234;2023-05-10T11:15:34;98547.59;;;19.90;45.07
51099;BME280;37146;48.210;16.234;2023-05-10T11:18:15;98538.59;;;19.80;44.90
51099;BME280;37146;48.210;16.234;2023-05-10T11:20:41;98535.22;;;19.68;44.81
51099;BME280;37146;48.210;16.234;2023-05-10T11:23:10;98529.72;;;20.16;43.74
51099;BME280;37146;48.210;16.234;2023-05-10T11:25:40;98542.03;;;20.38;44.17
51099;BME280;37146;48.210;16.234;2023-05-10T11:28:05;98538.94;;;20.05;43.47
51099;BME280;37146;48.210;16.234;2023-05-10T11:30:31;98529.28;;;20.57;43.23
51099;BME280;37146;48.210;16.234;2023-05-10T11:32:56;98540.72;;;20.78;43.41
51099;BME280;37146;48.210;16.234;2023-05-10T11:35:21;98536.03;;;20.70;43.40
51099;BME280;37146;48.210;16.234;2023-05-10T11:37:47;98530.84;;;18.61;47.54
51099;BME280;37146;48.210;16.234;2023-05-10T11:40:13;98552.28;;;21.69;40.83
51099;BME280;37146;48.210;16.234;2023-05-10T11:42:38;98560.91;;;21.38;41.24
51099;BME280;37146;48.210;16.234;2023-05-10T11:45:03;98544.28;;;22.11;40.30
51099;BME280;37146;48.210;16.234;2023-05-10T11:47:29;98548.31;;;22.06;39.75
51099;BME280;37146;48.210;16.234;2023-05-10T11:49:54;98531.59;;;19.50;43.90
51099;BME280;37146;48.210;16.234;2023-05-10T11:52:20;98528.34;;;20.30;42.38
51099;BME280;37146;48.210;16.234;2023-05-10T11:54:51;98536.88;;;19.79;43.58
51099;BME280;37146;48.210;16.234;2023-05-10T11:57:18;98541.91;;;19.36;44.18
51099;BME280;37146;48.210;16.234;2023-05-10T11:59:43;98539.41;;;18.56;47.09
51099;BME280;37146;48.210;16.234;2023-05-10T12:02:08;98537.56;;;18.96;46.02
51099;BME280;37146;48.210;16.234;2023-05-10T12:04:33;98555.69;;;18.95;44.89
51099;BME280;37146;48.210;16.234;2023-05-10T12:06:59;98553.38;;;18.51;45.92
51099;BME280;37146;48.210;16.234;2023-05-10T12:09:24;98537.81;;;18.93;45.67
51099;BME280;37146;48.210;16.234;2023-05-10T12:11:49;98560.50;;;19.21;44.20
51099;BME280;37146;48.210;16.234;2023-05-10T12:14:20;98538.63;;;19.33;44.95
51099;BME280;37146;48.210;16.234;2023-05-10T12:16:46;98550.66;;;18.91;45.18
51099;BME280;37146;48.210;16.234;2023-05-10T12:19:12;98543.66;;;18.88;45.50
51099;BME280;37146;48.210;16.234;2023-05-10T12:21:37;98535.28;;;19.58;44.49
51099;BME280;37146;48.210;16.234;2023-05-10T12:24:04;98537.34;;;19.37;45.33
51099;BME280;37146;48.210;16.234;2023-05-10T12:26:30;98537.47;;;19.45;45.08
51099;BME280;37146;48.210;16.234;2023-05-10T12:29:11;98542.59;;;19.86;45.36
51099;BME280;37146;48.210;16.234;2023-05-10T12:34:34;98519.44;;;19.91;44.47
51099;BME280;37146;48.210;16.234;2023-05-10T12:37:01;98521.22;;;19.73;42.83
51099;BME280;37146;48.210;16.234;2023-05-10T12:39:37;98527.13;;;19.96;43.10
51099;BME280;37146;48.210;16.234;2023-05-10T12:42:03;98521.50;;;20.62;43.08
51099;BME280;37146;48.210;16.234;2023-05-10T12:44:28;98528.41;;;20.56;42.87
51099;BME280;37146;48.210;16.234;2023-05-10T12:46:53;98527.25;;;19.57;42.86
51099;BME280;37146;48.210;16.234;2023-05-10T12:49:18;98525.31;;;19.77;43.75
51099;BME280;37146;48.210;16.234;2023-05-10T12:51:44;98515.13;;;19.13;46.09
51099;BME280;37146;48.210;16.234;2023-05-10T12:54:09;98515.75;;;18.78;46.66
51099;BME280;37146;48.210;16.234;2023-05-10T12:56:34;98514.13;;;19.24;47.09
51099;BME280;37146;48.210;16.234;2023-05-10T12:59:00;98512.94;;;19.74;45.32
51099;BME280;37146;48.210;16.234;2023-05-10T13:01:25;98510.34;;;18.58;47.31
51099;BME280;37146;48.210;16.234;2023-05-10T13:03:50;98523.25;;;19.23;45.95
51099;BME280;37146;48.210;16.234;2023-05-10T13:06:16;98514.56;;;18.12;47.26
51099;BME280;37146;48.210;16.234;2023-05-10T13:08:41;98519.31;;;18.39;46.91
51099;BME280;37146;48.210;16.234;2023-05-10T13:11:06;98515.03;;;18.66;46.67
51099;BME280;37146;48.210;16.234;2023-05-10T13:13:32;98508.34;;;18.50;46.67
51099;BME280;37146;48.210;16.234;2023-05-10T13:15:57;98511.47;;;18.65;46.79
51099;BME280;37146;48.210;16.234;2023-05-10T13:18:22;98505.78;;;18.29;47.28
51099;BME280;37146;48.210;16.234;2023-05-10T13:20:47;98499.91;;;18.24;47.47
51099;BME280;37146;48.210;16.234;2023-05-10T13:23:14;98512.22;;;17.87;48.15
51099;BME280;37146;48.210;16.234;2023-05-10T13:25:39;98507.06;;;17.84;48.77